sensor_id;sensor_type;location;lat;lon;timestamp;P1;durP1;ratioP1;P2;durP2;ratioP2
21657;SDS011;10990;48.174;9.782;2023-07-02T00:01:54;0.80;;;0.80;;
21657;SDS011;10990;48.174;9.782;2023-07-02T00:04:21;1.38;;;1.13;;
21657;SDS011;10990;48.174;9.782;2023-07-02T00:06:48;1.15;;;1.05;;
21657;SDS011;10990;48.174;9.782;2023-07-02T00:09:16;1.05;;;0.93;;
21657;SDS011;10990;48.174;9.782;2023-07-02T00:11:44;0.90;;;0.90;;
21657;SDS011;10990;48.174;9.782;2023-07-02T00:14:11;1.20;;;1.10;;
21657;SDS011;10990;48.174;9.782;2023-07-02T00:16:39;1.30;;;1.20;;
21657;SDS011;10990;48.174;9.782;2023-07-02T00:19:09;1.27;;;1.17;;
21657;SDS011;10990;48.174;9.782;2023-07-02T00:21:35;1.30;;;1.20;;
21657;SDS011;10990;48.174;9.782;2023-07-02T00:24:02;1.75;;;1.13;;
21657;SDS011;10990;48.174;9.782;2023-07-02T00:26:31;1.35;;;1.17;;
21657;SDS011;10990;48.174;9.782;2023-07-02T00:28:58;1.20;;;1.10;;
21657;SDS011;10990;48.174;9.782;2023-07-02T00:31:25;1.33;;;1.23;;
21657;SDS011;10990;48.174;9.782;2023-07-02T00:33:52;1.45;;;1.35;;
21657;SDS011;10990;48.174;9.782;2023-07-02T00:36:19;1.50;;;1.25;;
21657;SDS011;10990;48.174;9.782;2023-07-02T00:38:47;1.33;;;1.23;;
21657;SDS011;10990;48.174;9.782;2023-07-02T00:41:15;2.33;;;1.33;;
21657;SDS011;10990;48.174;9.782;2023-07-02T00:43:44;1.38;;;1.27;;
21657;SDS011;10990;48.174;9.782;2023-07-02T00:46:11;1.08;;;1.00;;
21657;SDS011;10990;48.174;9.782;2023-07-02T00:48:43;1.40;;;1.30;;
21657;SDS011;10990;48.174;9.782;2023-07-02T00:51:10;2.15;;;1.30;;
21657;SDS011;10990;48.174;9.782;2023-07-02T00:53:38;1.42;;;1.33;;
21657;SDS011;10990;48.174;9.782;2023-07-02T00:56:05;1.58;;;1.30;;
21657;SDS011;10990;48.174;9.782;2023-07-02T00:58:40;1.65;;;1.35;;
21657;SDS011;10990;48.174;9.782;2023-07-02T01:01:13;1.27;;;1.20;;
21657;SDS011;10990;48.174;9.782;2023-07-02T01:03:49;1.35;;;1.20;;
21657;SDS011;10990;48.174;9.782;2023-07-02T01:06:19;1.33;;;1.23;;
21657;SDS011;10990;48.174;9.782;2023-07-02T01:08:50;1.30;;;1.20;;
21657;SDS011;10990;48.174;9.782;2023-07-02T01:11:18;1.30;;;1.20;;
21657;SDS011;10990;48.174;9.782;2023-07-02T01:13:48;1.83;;;1.50;;
21657;SDS011;10990;48.174;9.782;2023-07-02T01:16:20;1.48;;;1.38;;
21657;SDS011;10990;48.174;9.782;2023-07-02T01:18:48;1.35;;;1.20;;
21657;SDS011;10990;48.174;9.782;2023-07-02T01:21:21;2.70;;;1.20;;
21657;SDS011;10990;48.174;9.782;2023-07-02T01:23:49;1.40;;;1.30;;
21657;SDS011;10990;48.174;9.782;2023-07-02T01:26:16;1.30;;;1.20;;
21657;SDS011;10990;48.174;9.782;2023-07-02T01:28:43;1.55;;;1.33;;
21657;SDS011;10990;48.174;9.782;2023-07-02T01:31:10;2.40;;;1.38;;
21657;SDS011;10990;48.174;9.782;2023-07-02T01:33:37;2.00;;;1.63;;
21657;SDS011;10990;48.174;9.782;2023-07-02T01:36:04;2.00;;;1.30;;
21657;SDS011;10990;48.174;9.782;2023-07-02T01:38:33;1.60;;;1.50;;
21657;SDS011;10990;48.174;9.782;2023-07-02T01:40:59;2.08;;;1.48;;
21657;SDS011;10990;48.174;9.782;2023-07-02T01:43:26;1.60;;;1.50;;
21657;SDS011;10990;48.174;9.782;2023-07-02T01:45:53;1.70;;;1.60;;
21657;SDS011;10990;48.174;9.782;2023-07-02T01:48:21;1.70;;;1.60;;
21657;SDS011;10990;48.174;9.782;2023-07-02T01:50:47;1.67;;;1.50;;
21657;SDS011;10990;48.174;9.782;2023-07-02T01:53:14;1.67;;;1.58;;
21657;SDS011;10990;48.174;9.782;2023-07-02T01:55:42;1.55;;;1.45;;
21657;SDS011;10990;48.174;9.782;2023-07-02T01:58:09;3.95;;;2.13;;
21657;SDS011;10990;48.174;9.782;2023-07-02T02:00:36;1.92;;;1.70;;
21657;SDS011;10990;48.174;9.782;2023-07-02T02:03:04;2.08;;;1.70;;
21657;SDS011;10990;48.174;9.782;2023-07-02T02:05:30;1.60;;;1.50;;
21657;SDS011;10990;48.174;9.782;2023-07-02T02:07:57;1.88;;;1.73;;
21657;SDS011;10990;48.174;9.782;2023-07-02T02:10:24;1.77;;;1.67;;
21657;SDS011;10990;48.174;9.782;2023-07-02T02:12:52;1.95;;;1.77;;
21657;SDS011;10990;48.174;9.782;2023-07-02T02:15:20;2.45;;;1.90;;
21657;SDS011;10990;48.174;9.782;2023-07-02T02:17:47;3.05;;;2.10;;
21657;SDS011;10990;48.174;9.782;2023-07-02T02:20:14;2.88;;;1.80;;
21657;SDS011;10990;48.174;9.782;2023-07-02T02:22:40;1.70;;;1.60;;
21657;SDS011;10990;48.174;9.782;2023-07-02T02:25:07;2.92;;;1.83;;
21657;SDS011;10990;48.174;9.782;2023-07-02T02:27:35;2.25;;;2.05;;
21657;SDS011;10990;48.174;9.782;2023-07-02T02:30:04;1.88;;;1.60;;
21657;SDS011;10990;48.174;9.782;2023-07-02T02:32:33;1.70;;;1.60;;
21657;SDS011;10990;48.174;9.782;2023-07-02T02:35:01;1.85;;;1.75;;
21657;SDS011;10990;48.174;9.782;2023-07-02T02:37:29;1.70;;;1.60;;
21657;SDS011;10990;48.174;9.782;2023-07-02T02:39:57;1.80;;;1.70;;
21657;SDS011;10990;48.174;9.782;2023-07-02T02:42:25;1.85;;;1.73;;
21657;SDS011;10990;48.174;9.782;2023-07-02T02:44:52;2.28;;;1.80;;
21657;SDS011;10990;48.174;9.782;2023-07-02T02:47:20;2.55;;;1.70;;
21657;SDS011;10990;48.174;9.782;2023-07-02T02:49:47;1.90;;;1.60;;
21657;SDS011;10990;48.174;9.782;2023-07-02T02:52:13;1.80;;;1.70;;
21657;SDS011;10990;48.174;9.782;2023-07-02T02:54:40;2.05;;;1.85;;
21657;SDS011;10990;48.174;9.782;2023-07-02T02:57:07;1.88;;;1.73;;
21657;SDS011;10990;48.174;9.782;2023-07-02T02:59:34;1.90;;;1.70;;
21657;SDS011;10990;48.174;9.782;2023-07-02T03:02:01;2.30;;;1.85;;
21657;SDS011;10990;48.174;9.782;2023-07-02T03:04:29;1.98;;;1.75;;
21657;SDS011;10990;48.174;9.782;2023-07-02T03:06:56;2.47;;;1.90;;
21657;SDS011;10990;48.174;9.782;2023-07-02T03:09:22;2.17;;;1.90;;
21657;SDS011;10990;48.174;9.782;2023-07-02T03:11:49;2.33;;;2.00;;
21657;SDS011;10990;48.174;9.782;2023-07-02T03:14:16;2.95;;;2.08;;
21657;SDS011;10990;48.174;9.782;2023-07-02T03:16:43;3.60;;;2.00;;
21657;SDS011;10990;48.174;9.782;2023-07-02T03:19:11;3.42;;;2.00;;
21657;SDS011;10990;48.174;9.782;2023-07-02T03:21:42;2.75;;;2.05;;
21657;SDS011;10990;48.174;9.782;2023-07-02T03:24:09;2.00;;;1.80;;
21657;SDS011;10990;48.174;9.782;2023-07-02T03:26:38;2.03;;;1.83;;
21657;SDS011;10990;48.174;9.782;2023-07-02T03:29:05;2.22;;;1.73;;
21657;SDS011;10990;48.174;9.782;2023-07-02T03:31:32;1.70;;;1.60;;
21657;SDS011;10990;48.174;9.782;2023-07-02T03:34:01;2.08;;;1.83;;
21657;SDS011;10990;48.174;9.782;2023-07-02T03:36:29;2.03;;;1.65;;
21657;SDS011;10990;48.174;9.782;2023-07-02T03:38:58;3.22;;;1.90;;
21657;SDS011;10990;48.174;9.782;2023-07-02T03:41:24;2.97;;;1.90;;
21657;SDS011;10990;48.174;9.782;2023-07-02T03:43:51;2.20;;;1.83;;
21657;SDS011;10990;48.174;9.782;2023-07-02T03:46:18;1.98;;;1.67;;
21657;SDS011;10990;48.174;9.782;2023-07-02T03:48:45;1.90;;;1.80;;
21657;SDS011;10990;48.174;9.782;2023-07-02T03:51:11;2.55;;;1.92;;
21657;SDS011;10990;48.174;9.782;2023-07-02T03:53:39;2.17;;;1.98;;
21657;SDS011;10990;48.174;9.782;2023-07-02T03:56:07;2.22;;;1.90;;
21657;SDS011;10990;48.174;9.782;2023-07-02T03:58:34;1.90;;;1.70;;
21657;SDS011;10990;48.174;9.782;2023-07-02T04:01:01;2.35;;;1.50;;
21657;SDS011;10990;48.174;9.782;2023-07-02T04:03:27;2.25;;;1.80;;
21657;SDS011;10990;48.174;9.782;2023-07-02T04:05:54;1.95;;;1.80;;
21657;SDS011;10990;48.174;9.782;2023-07-02T04:08:21;2.75;;;2.03;;
21657;SDS011;10990;48.174;9.782;2023-07-02T04:10:49;2.30;;;1.98;;
21657;SDS011;10990;48.174;9.782;2023-07-02T04:13:18;2.58;;;2.08;;
21657;SDS011;10990;48.174;9.782;2023-07-02T04:15:45;2.22;;;1.80;;
21657;SDS011;10990;48.174;9.782;2023-07-02T04:18:11;2.88;;;2.25;;
21657;SDS011;10990;48.174;9.782;2023-07-02T04:20:38;2.22;;;1.98;;
21657;SDS011;10990;48.174;9.782;2023-07-02T04:23:05;2.40;;;2.20;;
21657;SDS011;10990;48.174;9.782;2023-07-02T04:25:32;2.20;;;1.90;;
21657;SDS011;10990;48.174;9.782;2023-07-02T04:27:59;3.65;;;2.20;;
21657;SDS011;10990;48.174;9.782;2023-07-02T04:30:27;4.13;;;2.40;;
21657;SDS011;10990;48.174;9.782;2023-07-02T04:32:54;1.90;;;1.80;;
21657;SDS011;10990;48.174;9.782;2023-07-02T04:35:21;3.03;;;2.33;;
21657;SDS011;10990;48.174;9.782;2023-07-02T04:37:48;3.08;;;2.03;;
21657;SDS011;10990;48.174;9.782;2023-07-02T04:40:15;2.08;;;1.88;;
21657;SDS011;10990;48.174;9.782;2023-07-02T04:42:42;3.25;;;2.10;;
21657;SDS011;10990;48.174;9.782;2023-07-02T04:45:12;1.95;;;1.80;;
21657;SDS011;10990;48.174;9.782;2023-07-02T04:47:41;2.90;;;2.00;;
21657;SDS011;10990;48.174;9.782;2023-07-02T04:50:09;2.45;;;2.22;;
21657;SDS011;10990;48.174;9.782;2023-07-02T04:52:36;3.13;;;2.17;;
21657;SDS011;10990;48.174;9.782;2023-07-02T04:55:04;2.67;;;2.28;;
21657;SDS011;10990;48.174;9.782;2023-07-02T04:57:31;3.58;;;2.35;;
21657;SDS011;10990;48.174;9.782;2023-07-02T04:59:58;4.28;;;2.40;;
21657;SDS011;10990;48.174;9.782;2023-07-02T05:02:25;5.05;;;2.22;;
21657;SDS011;10990;48.174;9.782;2023-07-02T05:04:53;5.45;;;2.35;;
21657;SDS011;10990;48.174;9.782;2023-07-02T05:07:20;4.00;;;2.58;;
21657;SDS011;10990;48.174;9.782;2023-07-02T05:09:46;6.72;;;2.70;;
21657;SDS011;10990;48.174;9.782;2023-07-02T05:12:15;7.25;;;2.67;;
21657;SDS011;10990;48.174;9.782;2023-07-02T05:14:41;4.07;;;2.58;;
21657;SDS011;10990;48.174;9.782;2023-07-02T05:17:08;5.00;;;2.70;;
21657;SDS011;10990;48.174;9.782;2023-07-02T05:19:35;5.80;;;2.70;;
21657;SDS011;10990;48.174;9.782;2023-07-02T05:22:03;8.48;;;2.70;;
21657;SDS011;10990;48.174;9.782;2023-07-02T05:24:30;6.72;;;2.70;;
21657;SDS011;10990;48.174;9.782;2023-07-02T05:26:57;8.10;;;2.60;;
21657;SDS011;10990;48.174;9.782;2023-07-02T05:29:23;5.95;;;2.50;;
21657;SDS011;10990;48.174;9.782;2023-07-02T05:31:50;7.00;;;2.60;;
21657;SDS011;10990;48.174;9.782;2023-07-02T05:34:17;5.03;;;2.47;;
21657;SDS011;10990;48.174;9.782;2023-07-02T05:36:44;6.18;;;2.50;;
21657;SDS011;10990;48.174;9.782;2023-07-02T05:39:12;6.43;;;2.30;;
21657;SDS011;10990;48.174;9.782;2023-07-02T05:41:39;7.60;;;2.80;;
21657;SDS011;10990;48.174;9.782;2023-07-02T05:44:06;3.85;;;2.70;;
21657;SDS011;10990;48.174;9.782;2023-07-02T05:46:32;6.03;;;2.50;;
21657;SDS011;10990;48.174;9.782;2023-07-02T05:48:59;4.22;;;2.53;;
21657;SDS011;10990;48.174;9.782;2023-07-02T05:51:26;5.05;;;2.42;;
21657;SDS011;10990;48.174;9.782;2023-07-02T05:53:53;4.63;;;2.80;;
21657;SDS011;10990;48.174;9.782;2023-07-02T05:56:21;5.22;;;2.85;;
21657;SDS011;10990;48.174;9.782;2023-07-02T05:58:48;5.15;;;2.83;;
21657;SDS011;10990;48.174;9.782;2023-07-02T06:01:15;6.07;;;2.67;;
21657;SDS011;10990;48.174;9.782;2023-07-02T06:03:42;5.43;;;2.95;;
21657;SDS011;10990;48.174;9.782;2023-07-02T06:06:10;3.95;;;2.95;;
21657;SDS011;10990;48.174;9.782;2023-07-02T06:08:37;4.15;;;3.00;;
21657;SDS011;10990;48.174;9.782;2023-07-02T06:11:04;3.85;;;3.03;;
21657;SDS011;10990;48.174;9.782;2023-07-02T06:13:32;5.40;;;3.42;;
21657;SDS011;10990;48.174;9.782;2023-07-02T06:15:59;4.22;;;2.88;;
21657;SDS011;10990;48.174;9.782;2023-07-02T06:18:25;6.63;;;3.30;;
21657;SDS011;10990;48.174;9.782;2023-07-02T06:20:52;6.65;;;3.55;;
21657;SDS011;10990;48.174;9.782;2023-07-02T06:23:19;4.05;;;3.00;;
21657;SDS011;10990;48.174;9.782;2023-07-02T06:25:46;5.57;;;3.28;;
21657;SDS011;10990;48.174;9.782;2023-07-02T06:28:13;4.00;;;3.20;;
21657;SDS011;10990;48.174;9.782;2023-07-02T06:30:41;5.20;;;3.72;;
21657;SDS011;10990;48.174;9.782;2023-07-02T06:33:08;5.00;;;3.40;;
21657;SDS011;10990;48.174;9.782;2023-07-02T06:35:34;7.47;;;3.60;;
21657;SDS011;10990;48.174;9.782;2023-07-02T06:38:01;5.22;;;3.40;;
21657;SDS011;10990;48.174;9.782;2023-07-02T06:40:28;4.85;;;3.50;;
21657;SDS011;10990;48.174;9.782;2023-07-02T06:42:55;4.82;;;3.53;;
21657;SDS011;10990;48.174;9.782;2023-07-02T06:45:22;4.72;;;3.13;;
21657;SDS011;10990;48.174;9.782;2023-07-02T06:47:50;5.43;;;3.47;;
21657;SDS011;10990;48.174;9.782;2023-07-02T06:50:17;5.13;;;3.42;;
21657;SDS011;10990;48.174;9.782;2023-07-02T06:52:44;7.45;;;3.58;;
21657;SDS011;10990;48.174;9.782;2023-07-02T06:55:10;8.20;;;3.95;;
21657;SDS011;10990;48.174;9.782;2023-07-02T06:57:41;5.78;;;3.83;;
21657;SDS011;10990;48.174;9.782;2023-07-02T07:00:09;5.97;;;4.18;;
21657;SDS011;10990;48.174;9.782;2023-07-02T07:02:36;8.55;;;4.28;;
21657;SDS011;10990;48.174;9.782;2023-07-02T07:05:05;6.85;;;3.80;;
21657;SDS011;10990;48.174;9.782;2023-07-02T07:07:32;7.80;;;4.45;;
21657;SDS011;10990;48.174;9.782;2023-07-02T07:09:59;8.73;;;4.70;;
21657;SDS011;10990;48.174;9.782;2023-07-02T07:12:26;8.02;;;4.32;;
21657;SDS011;10990;48.174;9.782;2023-07-02T07:14:53;8.82;;;4.97;;
21657;SDS011;10990;48.174;9.782;2023-07-02T07:17:19;11.52;;;4.95;;
21657;SDS011;10990;48.174;9.782;2023-07-02T07:19:46;12.00;;;5.18;;
21657;SDS011;10990;48.174;9.782;2023-07-02T07:22:14;8.02;;;5.25;;
21657;SDS011;10990;48.174;9.782;2023-07-02T07:24:41;7.40;;;4.78;;
21657;SDS011;10990;48.174;9.782;2023-07-02T07:27:08;7.93;;;5.35;;
21657;SDS011;10990;48.174;9.782;2023-07-02T07:29:35;8.68;;;4.90;;
21657;SDS011;10990;48.174;9.782;2023-07-02T07:32:02;7.90;;;4.70;;
21657;SDS011;10990;48.174;9.782;2023-07-02T07:34:28;10.23;;;5.35;;
21657;SDS011;10990;48.174;9.782;2023-07-02T07:36:55;8.15;;;5.10;;
21657;SDS011;10990;48.174;9.782;2023-07-02T07:39:23;13.90;;;5.53;;
21657;SDS011;10990;48.174;9.782;2023-07-02T07:41:50;11.05;;;5.65;;
21657;SDS011;10990;48.174;9.782;2023-07-02T07:44:17;8.48;;;5.88;;
21657;SDS011;10990;48.174;9.782;2023-07-02T07:46:44;9.98;;;6.30;;
21657;SDS011;10990;48.174;9.782;2023-07-02T07:49:12;11.55;;;6.13;;
21657;SDS011;10990;48.174;9.782;2023-07-02T07:51:39;10.80;;;6.53;;
21657;SDS011;10990;48.174;9.782;2023-07-02T07:54:06;10.85;;;6.53;;
21657;SDS011;10990;48.174;9.782;2023-07-02T07:56:34;11.77;;;6.68;;
21657;SDS011;10990;48.174;9.782;2023-07-02T07:59:01;8.75;;;6.28;;
21657;SDS011;10990;48.174;9.782;2023-07-02T08:01:28;10.77;;;6.47;;
21657;SDS011;10990;48.174;9.782;2023-07-02T08:03:55;12.43;;;6.93;;
21657;SDS011;10990;48.174;9.782;2023-07-02T08:06:22;11.65;;;6.60;;
21657;SDS011;10990;48.174;9.782;2023-07-02T08:08:49;10.90;;;6.57;;
21657;SDS011;10990;48.174;9.782;2023-07-02T08:11:15;8.38;;;6.00;;
21657;SDS011;10990;48.174;9.782;2023-07-02T08:13:43;8.02;;;6.15;;
21657;SDS011;10990;48.174;9.782;2023-07-02T08:16:10;8.10;;;6.47;;
21657;SDS011;10990;48.174;9.782;2023-07-02T08:18:38;11.43;;;6.47;;
21657;SDS011;10990;48.174;9.782;2023-07-02T08:21:05;9.20;;;6.63;;
21657;SDS011;10990;48.174;9.782;2023-07-02T08:23:31;10.65;;;6.60;;
21657;SDS011;10990;48.174;9.782;2023-07-02T08:25:59;9.35;;;7.10;;
21657;SDS011;10990;48.174;9.782;2023-07-02T08:28:26;12.25;;;7.00;;
21657;SDS011;10990;48.174;9.782;2023-07-02T08:30:54;11.63;;;6.95;;
21657;SDS011;10990;48.174;9.782;2023-07-02T08:33:21;8.52;;;6.68;;
21657;SDS011;10990;48.174;9.782;2023-07-02T08:35:48;10.38;;;7.25;;
21657;SDS011;10990;48.174;9.782;2023-07-02T08:38:15;12.60;;;8.00;;
21657;SDS011;10990;48.174;9.782;2023-07-02T08:40:41;11.40;;;8.10;;
21657;SDS011;10990;48.174;9.782;2023-07-02T08:43:08;12.35;;;8.63;;
21657;SDS011;10990;48.174;9.782;2023-07-02T08:45:35;11.75;;;7.93;;
21657;SDS011;10990;48.174;9.782;2023-07-02T08:48:04;11.27;;;8.25;;
21657;SDS011;10990;48.174;9.782;2023-07-02T08:50:32;10.20;;;8.55;;
21657;SDS011;10990;48.174;9.782;2023-07-02T08:52:59;10.85;;;8.30;;
21657;SDS011;10990;48.174;9.782;2023-07-02T08:55:26;12.88;;;9.20;;
21657;SDS011;10990;48.174;9.782;2023-07-02T08:57:55;12.52;;;8.85;;
21657;SDS011;10990;48.174;9.782;2023-07-02T09:00:24;11.65;;;8.82;;
21657;SDS011;10990;48.174;9.782;2023-07-02T09:02:51;13.38;;;9.95;;
21657;SDS011;10990;48.174;9.782;2023-07-02T09:05:20;14.20;;;10.10;;
21657;SDS011;10990;48.174;9.782;2023-07-02T09:07:46;15.52;;;11.10;;
21657;SDS011;10990;48.174;9.782;2023-07-02T09:10:25;13.57;;;10.60;;
21657;SDS011;10990;48.174;9.782;2023-07-02T09:13:02;15.52;;;11.38;;
21657;SDS011;10990;48.174;9.782;2023-07-02T09:15:34;16.73;;;12.13;;
21657;SDS011;10990;48.174;9.782;2023-07-02T09:18:02;16.27;;;11.75;;
21657;SDS011;10990;48.174;9.782;2023-07-02T09:20:41;15.43;;;11.35;;
21657;SDS011;10990;48.174;9.782;2023-07-02T09:23:08;15.95;;;11.20;;
21657;SDS011;10990;48.174;9.782;2023-07-02T09:25:36;15.52;;;11.00;;
21657;SDS011;10990;48.174;9.782;2023-07-02T09:28:13;15.18;;;10.93;;
21657;SDS011;10990;48.174;9.782;2023-07-02T09:30:48;16.30;;;11.52;;
21657;SDS011;10990;48.174;9.782;2023-07-02T09:33:16;18.77;;;12.50;;
21657;SDS011;10990;48.174;9.782;2023-07-02T09:35:44;17.08;;;12.75;;
21657;SDS011;10990;48.174;9.782;2023-07-02T09:38:11;15.50;;;11.65;;
21657;SDS011;10990;48.174;9.782;2023-07-02T09:40:42;18.77;;;12.18;;
21657;SDS011;10990;48.174;9.782;2023-07-02T09:43:11;17.40;;;13.00;;
21657;SDS011;10990;48.174;9.782;2023-07-02T09:45:40;20.92;;;13.18;;
21657;SDS011;10990;48.174;9.782;2023-07-02T09:48:10;19.00;;;13.00;;
21657;SDS011;10990;48.174;9.782;2023-07-02T09:50:39;20.33;;;13.85;;
21657;SDS011;10990;48.174;9.782;2023-07-02T09:53:08;17.13;;;13.02;;
21657;SDS011;10990;48.174;9.782;2023-07-02T09:55:35;20.20;;;13.40;;
21657;SDS011;10990;48.174;9.782;2023-07-02T09:58:02;18.90;;;12.65;;
21657;SDS011;10990;48.174;9.782;2023-07-02T10:00:29;19.10;;;13.18;;
21657;SDS011;10990;48.174;9.782;2023-07-02T10:02:55;22.25;;;14.25;;
21657;SDS011;10990;48.174;9.782;2023-07-02T10:05:25;21.25;;;13.80;;
21657;SDS011;10990;48.174;9.782;2023-07-02T10:07:52;19.15;;;13.80;;
21657;SDS011;10990;48.174;9.782;2023-07-02T10:10:26;20.98;;;13.82;;
21657;SDS011;10990;48.174;9.782;2023-07-02T10:12:54;18.83;;;14.18;;
21657;SDS011;10990;48.174;9.782;2023-07-02T10:15:24;20.83;;;14.63;;
21657;SDS011;10990;48.174;9.782;2023-07-02T10:17:55;22.08;;;14.88;;
21657;SDS011;10990;48.174;9.782;2023-07-02T10:20:32;23.67;;;15.90;;
21657;SDS011;10990;48.174;9.782;2023-07-02T10:23:00;24.23;;;16.52;;
21657;SDS011;10990;48.174;9.782;2023-07-02T10:25:29;26.95;;;17.75;;
21657;SDS011;10990;48.174;9.782;2023-07-02T10:27:57;25.48;;;17.13;;
21657;SDS011;10990;48.174;9.782;2023-07-02T10:30:32;24.40;;;17.85;;
21657;SDS011;10990;48.174;9.782;2023-07-02T10:33:07;24.92;;;17.45;;
21657;SDS011;10990;48.174;9.782;2023-07-02T10:35:35;24.15;;;16.52;;
21657;SDS011;10990;48.174;9.782;2023-07-02T10:38:02;25.25;;;17.02;;
21657;SDS011;10990;48.174;9.782;2023-07-02T10:40:30;25.65;;;16.80;;
21657;SDS011;10990;48.174;9.782;2023-07-02T10:42:58;27.90;;;17.90;;
21657;SDS011;10990;48.174;9.782;2023-07-02T10:45:31;23.98;;;18.40;;
21657;SDS011;10990;48.174;9.782;2023-07-02T10:47:59;26.60;;;16.90;;
21657;SDS011;10990;48.174;9.782;2023-07-02T10:50:28;24.20;;;16.73;;
21657;SDS011;10990;48.174;9.782;2023-07-02T10:52:56;24.05;;;16.92;;
21657;SDS011;10990;48.174;9.782;2023-07-02T10:55:24;26.13;;;17.42;;
21657;SDS011;10990;48.174;9.782;2023-07-02T10:58:03;28.05;;;18.08;;
21657;SDS011;10990;48.174;9.782;2023-07-02T11:00:31;22.35;;;15.80;;
21657;SDS011;10990;48.174;9.782;2023-07-02T11:02:58;24.55;;;17.17;;
21657;SDS011;10990;48.174;9.782;2023-07-02T11:05:25;27.80;;;18.08;;
21657;SDS011;10990;48.174;9.782;2023-07-02T11:07:52;24.17;;;17.67;;
21657;SDS011;10990;48.174;9.782;2023-07-02T11:10:22;25.30;;;17.98;;
21657;SDS011;10990;48.174;9.782;2023-07-02T11:12:49;26.02;;;18.52;;
21657;SDS011;10990;48.174;9.782;2023-07-02T11:15:18;24.27;;;17.70;;
21657;SDS011;10990;48.174;9.782;2023-07-02T11:17:44;24.90;;;18.50;;
21657;SDS011;10990;48.174;9.782;2023-07-02T11:20:12;27.15;;;18.98;;
21657;SDS011;10990;48.174;9.782;2023-07-02T11:22:39;24.33;;;17.40;;
21657;SDS011;10990;48.174;9.782;2023-07-02T11:25:10;26.30;;;19.20;;
21657;SDS011;10990;48.174;9.782;2023-07-02T11:27:38;24.23;;;17.70;;
21657;SDS011;10990;48.174;9.782;2023-07-02T11:30:05;25.70;;;19.33;;
21657;SDS011;10990;48.174;9.782;2023-07-02T11:32:46;29.25;;;19.10;;
21657;SDS011;10990;48.174;9.782;2023-07-02T11:35:14;26.75;;;19.85;;
21657;SDS011;10990;48.174;9.782;2023-07-02T11:37:42;26.45;;;19.02;;
21657;SDS011;10990;48.174;9.782;2023-07-02T11:40:09;27.25;;;18.75;;
21657;SDS011;10990;48.174;9.782;2023-07-02T11:42:36;27.10;;;19.20;;
21657;SDS011;10990;48.174;9.782;2023-07-02T11:45:03;28.98;;;20.08;;
21657;SDS011;10990;48.174;9.782;2023-07-02T11:47:30;27.90;;;19.42;;
21657;SDS011;10990;48.174;9.782;2023-07-02T11:49:58;26.88;;;18.88;;
21657;SDS011;10990;48.174;9.782;2023-07-02T11:52:25;27.02;;;18.88;;
21657;SDS011;10990;48.174;9.782;2023-07-02T11:54:52;26.58;;;19.75;;
21657;SDS011;10990;48.174;9.782;2023-07-02T11:57:19;26.05;;;18.23;;
21657;SDS011;10990;48.174;9.782;2023-07-02T11:59:46;24.63;;;18.00;;
21657;SDS011;10990;48.174;9.782;2023-07-02T12:02:14;25.77;;;17.27;;
21657;SDS011;10990;48.174;9.782;2023-07-02T12:04:41;25.77;;;18.67;;
21657;SDS011;10990;48.174;9.782;2023-07-02T12:07:09;26.85;;;17.35;;
21657;SDS011;10990;48.174;9.782;2023-07-02T12:09:36;25.35;;;18.27;;
21657;SDS011;10990;48.174;9.782;2023-07-02T12:12:03;23.52;;;16.77;;
21657;SDS011;10990;48.174;9.782;2023-07-02T12:14:30;22.55;;;16.20;;
21657;SDS011;10990;48.174;9.782;2023-07-02T12:16:57;23.77;;;16.85;;
21657;SDS011;10990;48.174;9.782;2023-07-02T12:19:24;25.60;;;16.98;;
21657;SDS011;10990;48.174;9.782;2023-07-02T12:21:50;23.67;;;16.63;;
21657;SDS011;10990;48.174;9.782;2023-07-02T12:24:18;23.25;;;16.40;;
21657;SDS011;10990;48.174;9.782;2023-07-02T12:26:45;22.50;;;17.00;;
21657;SDS011;10990;48.174;9.782;2023-07-02T12:29:12;23.77;;;16.65;;
21657;SDS011;10990;48.174;9.782;2023-07-02T12:31:38;21.48;;;15.88;;
21657;SDS011;10990;48.174;9.782;2023-07-02T12:34:05;24.40;;;16.35;;
21657;SDS011;10990;48.174;9.782;2023-07-02T12:36:32;22.13;;;16.10;;
21657;SDS011;10990;48.174;9.782;2023-07-02T12:38:58;21.10;;;15.02;;
21657;SDS011;10990;48.174;9.782;2023-07-02T12:41:26;20.30;;;15.10;;
21657;SDS011;10990;48.174;9.782;2023-07-02T12:43:54;21.73;;;14.70;;
21657;SDS011;10990;48.174;9.782;2023-07-02T12:46:21;21.70;;;15.23;;
21657;SDS011;10990;48.174;9.782;2023-07-02T12:48:48;18.17;;;13.70;;
21657;SDS011;10990;48.174;9.782;2023-07-02T12:51:14;20.70;;;13.90;;
21657;SDS011;10990;48.174;9.782;2023-07-02T12:53:41;18.45;;;14.40;;
21657;SDS011;10990;48.174;9.782;2023-07-02T12:56:08;18.48;;;13.57;;
21657;SDS011;10990;48.174;9.782;2023-07-02T12:58:36;19.70;;;13.80;;
21657;SDS011;10990;48.174;9.782;2023-07-02T13:01:03;21.08;;;13.38;;
21657;SDS011;10990;48.174;9.782;2023-07-02T13:03:30;18.35;;;12.45;;
21657;SDS011;10990;48.174;9.782;2023-07-02T13:05:57;20.55;;;13.48;;
21657;SDS011;10990;48.174;9.782;2023-07-02T13:08:23;18.20;;;13.23;;
21657;SDS011;10990;48.174;9.782;2023-07-02T13:10:50;16.05;;;12.52;;
21657;SDS011;10990;48.174;9.782;2023-07-02T13:13:17;18.17;;;12.57;;
21657;SDS011;10990;48.174;9.782;2023-07-02T13:15:45;17.48;;;12.40;;
21657;SDS011;10990;48.174;9.782;2023-07-02T13:18:11;19.55;;;13.90;;
21657;SDS011;10990;48.174;9.782;2023-07-02T13:20:38;18.45;;;12.68;;
21657;SDS011;10990;48.174;9.782;2023-07-02T13:23:05;19.08;;;13.02;;
21657;SDS011;10990;48.174;9.782;2023-07-02T13:25:31;17.80;;;12.98;;
21657;SDS011;10990;48.174;9.782;2023-07-02T13:27:58;22.98;;;13.38;;
21657;SDS011;10990;48.174;9.782;2023-07-02T13:30:25;18.83;;;12.82;;
21657;SDS011;10990;48.174;9.782;2023-07-02T13:32:54;18.65;;;13.20;;
21657;SDS011;10990;48.174;9.782;2023-07-02T13:35:22;17.65;;;12.38;;
21657;SDS011;10990;48.174;9.782;2023-07-02T13:37:49;16.92;;;12.25;;
21657;SDS011;10990;48.174;9.782;2023-07-02T13:40:15;17.92;;;12.88;;
21657;SDS011;10990;48.174;9.782;2023-07-02T13:42:42;15.38;;;11.43;;
21657;SDS011;10990;48.174;9.782;2023-07-02T13:45:09;18.27;;;13.05;;
21657;SDS011;10990;48.174;9.782;2023-07-02T13:47:36;17.33;;;11.57;;
21657;SDS011;10990;48.174;9.782;2023-07-02T13:50:05;15.68;;;11.63;;
21657;SDS011;10990;48.174;9.782;2023-07-02T13:52:32;15.02;;;10.77;;
21657;SDS011;10990;48.174;9.782;2023-07-02T13:54:59;15.13;;;11.32;;
21657;SDS011;10990;48.174;9.782;2023-07-02T13:57:26;15.18;;;10.48;;
21657;SDS011;10990;48.174;9.782;2023-07-02T13:59:54;16.90;;;10.60;;
21657;SDS011;10990;48.174;9.782;2023-07-02T14:02:22;16.42;;;10.55;;
21657;SDS011;10990;48.174;9.782;2023-07-02T14:04:49;15.18;;;10.23;;
21657;SDS011;10990;48.174;9.782;2023-07-02T14:07:16;11.60;;;8.77;;
21657;SDS011;10990;48.174;9.782;2023-07-02T14:09:42;14.73;;;9.38;;
21657;SDS011;10990;48.174;9.782;2023-07-02T14:12:09;12.32;;;9.38;;
21657;SDS011;10990;48.174;9.782;2023-07-02T14:14:37;14.32;;;9.32;;
21657;SDS011;10990;48.174;9.782;2023-07-02T14:17:05;13.00;;;9.00;;
21657;SDS011;10990;48.174;9.782;2023-07-02T14:19:32;14.25;;;9.60;;
21657;SDS011;10990;48.174;9.782;2023-07-02T14:21:59;12.57;;;9.25;;
21657;SDS011;10990;48.174;9.782;2023-07-02T14:24:25;12.30;;;8.85;;
21657;SDS011;10990;48.174;9.782;2023-07-02T14:26:55;12.25;;;8.70;;
21657;SDS011;10990;48.174;9.782;2023-07-02T14:29:22;12.05;;;8.90;;
21657;SDS011;10990;48.174;9.782;2023-07-02T14:31:49;12.50;;;8.15;;
21657;SDS011;10990;48.174;9.782;2023-07-02T14:34:17;10.82;;;7.80;;
21657;SDS011;10990;48.174;9.782;2023-07-02T14:36:43;11.18;;;8.05;;
21657;SDS011;10990;48.174;9.782;2023-07-02T14:39:10;11.55;;;7.57;;
21657;SDS011;10990;48.174;9.782;2023-07-02T14:41:37;17.55;;;7.43;;